sensor_id;sensor_type;location;lat;lon;timestamp;pressure;altitude;pressure_sealevel;temperature;humidity
46946;BME280;32679;40.810;14.498;2024-02-28T00:04:03;75439.91;;;15.05;60.96
46946;BME280;32679;40.810;14.498;2024-02-28T00:10:26;75423.91;;;14.86;59.25
46946;BME280;32679;40.810;14.498;2024-02-28T00:13:06;75420.91;;;14.84;58.66
46946;BME280;32679;40.810;14.498;2024-02-28T00:19:01;75506.00;;;15.56;54.83
46946;BME280;32679;40.810;14.498;2024-02-28T00:21:45;75506.63;;;15.57;54.68
46946;BME280;32679;40.810;14.498;2024-02-28T00:24:11;75493.03;;;15.48;53.80
46946;BME280;32679;40.810;14.498;2024-02-28T00:26:43;75490.66;;;15.45;52.81
46946;BME280;32679;40.810;14.498;2024-02-28T00:29:19;75530.81;;;15.80;52.66
46946;BME280;32679;40.810;14.498;2024-02-28T00:31:58;75515.63;;;15.64;53.24
46946;BME280;32679;40.810;14.498;2024-02-28T00:34:50;75511.25;;;15.65;53.55
46946;BME280;32679;40.810;14.498;2024-02-28T00:37:43;75489.81;;;15.42;52.98
46946;BME280;32679;40.810;14.498;2024-02-28T00:47:45;75502.81;;;15.51;53.42
46946;BME280;32679;40.810;14.498;2024-02-28T00:55:56;75462.63;;;15.17;52.39
46946;BME280;32679;40.810;14.498;2024-02-28T00:58:40;75494.44;;;15.51;51.37
46946;BME280;32679;40.810;14.498;2024-02-28T01:01:07;75522.00;;;15.67;50.56
46946;BME280;32679;40.810;14.498;2024-02-28T01:03:54;75527.22;;;15.77;49.95
46946;BME280;32679;40.810;14.498;2024-02-28T01:06:42;75540.00;;;15.83;47.42
46946;BME280;32679;40.810;14.498;2024-02-28T01:09:12;75556.41;;;16.06;47.74
46946;BME280;32679;40.810;14.498;2024-02-28T01:11:46;75550.81;;;15.99;47.61
46946;BME280;32679;40.810;14.498;2024-02-28T01:14:14;75542.41;;;15.92;47.84
46946;BME280;32679;40.810;14.498;2024-02-28T01:16:42;75554.81;;;16.00;47.14
46946;BME280;32679;40.810;14.498;2024-02-28T01:19:37;75545.59;;;15.90;45.32
46946;BME280;32679;40.810;14.498;2024-02-28T01:22:06;75532.84;;;15.84;46.74
46946;BME280;32679;40.810;14.498;2024-02-28T01:24:34;75508.00;;;15.60;47.32
46946;BME280;32679;40.810;14.498;2024-02-28T01:27:04;75512.00;;;15.61;47.13
46946;BME280;32679;40.810;14.498;2024-02-28T01:29:35;75533.22;;;15.82;46.38
46946;BME280;32679;40.810;14.498;2024-02-28T01:35:15;75548.03;;;15.99;44.09
46946;BME280;32679;40.810;14.498;2024-02-28T01:37:52;75537.22;;;15.83;44.30
46946;BME280;32679;40.810;14.498;2024-02-28T01:40:52;75575.59;;;16.15;44.34
46946;BME280;32679;40.810;14.498;2024-02-28T01:44:00;75566.78;;;16.10;44.38
46946;BME280;32679;40.810;14.498;2024-02-28T01:53:41;75538.41;;;15.84;43.28
46946;BME280;32679;40.810;14.498;2024-02-28T01:59:58;75544.81;;;15.94;44.31
46946;BME280;32679;40.810;14.498;2024-02-28T02:10:31;75476.03;;;15.31;45.55
46946;BME280;32679;40.810;14.498;2024-02-28T02:13:04;75488.44;;;15.46;45.34
46946;BME280;32679;40.810;14.498;2024-02-28T02:15:32;75481.25;;;15.40;44.67
46946;BME280;32679;40.810;14.498;2024-02-28T02:17:58;75516.44;;;15.67;44.38
46946;BME280;32679;40.810;14.498;2024-02-28T02:24:20;75547.22;;;15.96;42.85
46946;BME280;32679;40.810;14.498;2024-02-28T02:43:52;75468.47;;;15.27;44.50
46946;BME280;32679;40.810;14.498;2024-02-28T02:46:52;75500.41;;;15.49;45.18
46946;BME280;32679;40.810;14.498;2024-02-28T02:56:49;75476.47;;;15.36;43.86
46946;BME280;32679;40.810;14.498;2024-02-28T03:03:12;75456.28;;;15.14;44.58
46946;BME280;32679;40.810;14.498;2024-02-28T03:06:39;75474.44;;;15.32;44.42
46946;BME280;32679;40.810;14.498;2024-02-28T03:40:10;75509.59;;;15.59;44.25
46946;BME280;32679;40.810;14.498;2024-02-28T04:03:34;75530.03;;;15.77;43.56
46946;BME280;32679;40.810;14.498;2024-02-28T04:07:13;75544.41;;;15.89;42.68
46946;BME280;32679;40.810;14.498;2024-02-28T04:10:14;75542.81;;;15.90;43.07
46946;BME280;32679;40.810;14.498;2024-02-28T04:13:41;75500.81;;;15.54;43.30
46946;BME280;32679;40.810;14.498;2024-02-28T04:26:18;75488.44;;;15.46;42.21
46946;BME280;32679;40.810;14.498;2024-02-28T04:33:24;75486.03;;;15.44;42.51
46946;BME280;32679;40.810;14.498;2024-02-28T04:39:39;75500.03;;;15.51;42.65
46946;BME280;32679;40.810;14.498;2024-02-28T04:49:14;75487.25;;;15.45;42.24
46946;BME280;32679;40.810;14.498;2024-02-28T04:51:59;75481.63;;;15.38;42.17
46946;BME280;32679;40.810;14.498;2024-02-28T05:01:56;75474.44;;;15.32;42.38
46946;BME280;32679;40.810;14.498;2024-02-28T05:04:49;75486.84;;;15.40;41.72
46946;BME280;32679;40.810;14.498;2024-02-28T05:08:08;75522.81;;;15.70;41.81
46946;BME280;32679;40.810;14.498;2024-02-28T05:16:15;75524.63;;;15.72;41.79
46946;BME280;32679;40.810;14.498;2024-02-28T05:18:45;75505.84;;;15.61;41.18
46946;BME280;32679;40.810;14.498;2024-02-28T05:27:05;75542.22;;;15.89;39.56
46946;BME280;32679;40.810;14.498;2024-02-28T05:29:52;75547.81;;;15.96;39.84
46946;BME280;32679;40.810;14.498;2024-02-28T05:35:54;75587.19;;;16.28;39.75
46946;BME280;32679;40.810;14.498;2024-02-28T05:38:48;75613.75;;;16.45;38.79
46946;BME280;32679;40.810;14.498;2024-02-28T05:41:41;75606.97;;;16.44;39.41
46946;BME280;32679;40.810;14.498;2024-02-28T05:44:27;75625.56;;;16.60;38.46
46946;BME280;32679;40.810;14.498;2024-02-28T05:47:13;75627.56;;;16.64;38.13
46946;BME280;32679;40.810;14.498;2024-02-28T05:49:39;75605.59;;;16.48;38.46
46946;BME280;32679;40.810;14.498;2024-02-28T05:52:21;75585.59;;;16.29;39.08
46946;BME280;32679;40.810;14.498;2024-02-28T05:54:49;75593.56;;;16.31;38.39
46946;BME280;32679;40.810;14.498;2024-02-28T05:57:16;75613.19;;;16.52;38.17
46946;BME280;32679;40.810;14.498;2024-02-28T05:59:46;75610.16;;;16.49;38.37
46946;BME280;32679;40.810;14.498;2024-02-28T06:02:26;75628.75;;;16.65;38.09
46946;BME280;32679;40.810;14.498;2024-02-28T06:08:41;75621.56;;;16.59;38.56
46946;BME280;32679;40.810;14.498;2024-02-28T06:14:41;75637.19;;;16.72;37.31
46946;BME280;32679;40.810;14.498;2024-02-28T06:17:24;75611.97;;;16.51;37.01
46946;BME280;32679;40.810;14.498;2024-02-28T06:19:52;75632.75;;;16.66;36.25
46946;BME280;32679;40.810;14.498;2024-02-28T06:25:46;75675.97;;;17.03;36.83
46946;BME280;32679;40.810;14.498;2024-02-28T06:28:13;75665.97;;;16.97;37.23
46946;BME280;32679;40.810;14.498;2024-02-28T06:30:43;75622.75;;;16.60;37.41
46946;BME280;32679;40.810;14.498;2024-02-28T06:33:19;75661.38;;;16.95;37.23
46946;BME280;32679;40.810;14.498;2024-02-28T06:35:46;75673.94;;;16.99;37.21
46946;BME280;32679;40.810;14.498;2024-02-28T06:38:16;75643.16;;;16.77;37.08
46946;BME280;32679;40.810;14.498;2024-02-28T06:40:47;75666.75;;;16.93;37.83
46946;BME280;32679;40.810;14.498;2024-02-28T06:43:23;75626.38;;;16.63;38.31
46946;BME280;32679;40.810;14.498;2024-02-28T06:46:19;75652.78;;;16.86;38.22
46946;BME280;32679;40.810;14.498;2024-02-28T06:50:15;75615.38;;;16.52;38.27
46946;BME280;32679;40.810;14.498;2024-02-28T07:07:43;75597.56;;;16.39;41.47
46946;BME280;32679;40.810;14.498;2024-02-28T07:10:15;75559.19;;;16.06;41.59
46946;BME280;32679;40.810;14.498;2024-02-28T07:16:47;75572.78;;;16.15;41.88
46946;BME280;32679;40.810;14.498;2024-02-28T07:19:19;75568.81;;;16.14;42.16
46946;BME280;32679;40.810;14.498;2024-02-28T07:22:42;75572.38;;;16.17;42.29
46946;BME280;32679;40.810;14.498;2024-02-28T07:26:18;75566.56;;;16.08;42.46
46946;BME280;32679;40.810;14.498;2024-02-28T07:29:31;75564.00;;;16.10;42.11
46946;BME280;32679;40.810;14.498;2024-02-28T07:32:38;75594.00;;;16.36;41.65
46946;BME280;32679;40.810;14.498;2024-02-28T07:35:17;75562.81;;;16.09;41.37
46946;BME280;32679;40.810;14.498;2024-02-28T07:37:52;75568.59;;;16.12;41.29
46946;BME280;32679;40.810;14.498;2024-02-28T07:41:06;75593.19;;;16.33;41.17
46946;BME280;32679;40.810;14.498;2024-02-28T07:43:56;75605.16;;;16.43;41.33
46946;BME280;32679;40.810;14.498;2024-02-28T07:50:29;75619.97;;;16.60;41.03
46946;BME280;32679;40.810;14.498;2024-02-28T07:53:17;75617.16;;;16.53;40.93
46946;BME280;32679;40.810;14.498;2024-02-28T07:59:09;75639.59;;;16.74;41.04
46946;BME280;32679;40.810;14.498;2024-02-28T08:02:46;75646.78;;;16.81;41.38
46946;BME280;32679;40.810;14.498;2024-02-28T08:19:17;75733.56;;;17.52;39.58
46946;BME280;32679;40.810;14.498;2024-02-28T08:51:17;75910.75;;;19.02;36.68
46946;BME280;32679;40.810;14.498;2024-02-28T08:57:26;75795.22;;;18.09;38.39
46946;BME280;32679;40.810;14.498;2024-02-28T08:59:57;75805.22;;;18.15;37.85
46946;BME280;32679;40.810;14.498;2024-02-28T09:02:23;75799.22;;;18.10;38.08
46946;BME280;32679;40.810;14.498;2024-02-28T09:05:03;75766.22;;;17.82;38.31
46946;BME280;32679;40.810;14.498;2024-02-28T09:07:51;75733.19;;;17.54;39.47
46946;BME280;32679;40.810;14.498;2024-02-28T09:10:24;75766.22;;;17.82;39.50
46946;BME280;32679;40.810;14.498;2024-02-28T09:13:15;75751.78;;;17.70;39.36
46946;BME280;32679;40.810;14.498;2024-02-28T09:23:05;75790.00;;;18.00;39.97
46946;BME280;32679;40.810;14.498;2024-02-28T09:26:02;75806.81;;;18.14;39.82
46946;BME280;32679;40.810;14.498;2024-02-28T09:29:32;75772.22;;;17.87;39.41
46946;BME280;32679;40.810;14.498;2024-02-28T09:32:37;75814.44;;;18.25;39.63
46946;BME280;32679;40.810;14.498;2024-02-28T09:35:19;75801.81;;;18.08;39.85
46946;BME280;32679;40.810;14.498;2024-02-28T09:38:04;75757.81;;;17.75;40.58
46946;BME280;32679;40.810;14.498;2024-02-28T09:40:37;75754.00;;;17.69;40.98
46946;BME280;32679;40.810;14.498;2024-02-28T10:00:57;76003.09;;;19.85;39.27
46946;BME280;32679;40.810;14.498;2024-02-28T10:03:24;76021.53;;;19.99;38.39
46946;BME280;32679;40.810;14.498;2024-02-28T10:05:50;76046.78;;;20.20;38.07
46946;BME280;32679;40.810;14.498;2024-02-28T10:08:15;76066.81;;;20.32;37.72
46946;BME280;32679;40.810;14.498;2024-02-28T10:14:22;76001.09;;;19.81;38.17
46946;BME280;32679;40.810;14.498;2024-02-28T10:16:47;75966.22;;;19.52;38.13
46946;BME280;32679;40.810;14.498;2024-02-28T10:30:54;75825.44;;;18.30;40.12
46946;BME280;32679;40.810;14.498;2024-02-28T10:36:47;75723.56;;;17.46;41.37
46946;BME280;32679;40.810;14.498;2024-02-28T10:39:52;75713.97;;;17.38;41.54
46946;BME280;32679;40.810;14.498;2024-02-28T10:42:39;75760.41;;;17.72;42.11
46946;BME280;32679;40.810;14.498;2024-02-28T10:45:26;75734.78;;;17.53;42.07
46946;BME280;32679;40.810;14.498;2024-02-28T10:48:20;75700.38;;;17.21;42.44
46946;BME280;32679;40.810;14.498;2024-02-28T10:50:46;75711.56;;;17.36;42.66
46946;BME280;32679;40.810;14.498;2024-02-28T10:56:06;75731.16;;;17.50;42.53
46946;BME280;32679;40.810;14.498;2024-02-28T10:59:02;75723.97;;;17.44;42.36
46946;BME280;32679;40.810;14.498;2024-02-28T11:01:40;75700.56;;;17.24;42.71
46946;BME280;32679;40.810;14.498;2024-02-28T11:04:12;75731.16;;;17.50;43.05
46946;BME280;32679;40.810;14.498;2024-02-28T11:06:58;75728.97;;;17.50;42.71
46946;BME280;32679;40.810;14.498;2024-02-28T11:09:29;75745.97;;;17.60;42.46
46946;BME280;32679;40.810;14.498;2024-02-28T11:12:33;75746.38;;;17.65;42.45
46946;BME280;32679;40.810;14.498;2024-02-28T11:15:15;75761.22;;;17.75;42.16
46946;BME280;32679;40.810;14.498;2024-02-28T11:18:10;75792.03;;;18.04;37.89
46946;BME280;32679;40.810;14.498;2024-02-28T11:20:36;75847.66;;;18.49;33.77
46946;BME280;32679;40.810;14.498;2024-02-28T11:23:14;75873.69;;;18.73;36.71
46946;BME280;32679;40.810;14.498;2024-02-28T11:26:01;75946.59;;;19.30;36.25
46946;BME280;32679;40.810;14.498;2024-02-28T11:28:51;75952.59;;;19.43;36.54
46946;BME280;32679;40.810;14.498;2024-02-28T11:31:51;76033.56;;;20.09;34.39
46946;BME280;32679;40.810;14.498;2024-02-28T11:41:04;76172.25;;;21.24;32.21
46946;BME280;32679;40.810;14.498;2024-02-28T11:44:01;76026.94;;;20.03;36.45
46946;BME280;32679;40.810;14.498;2024-02-28T11:46:47;75960.63;;;19.45;39.64
46946;BME280;32679;40.810;14.498;2024-02-28T11:49:24;75942.19;;;19.31;39.92
46946;BME280;32679;40.810;14.498;2024-02-28T11:51:55;75970.44;;;19.55;39.78
46946;BME280;32679;40.810;14.498;2024-02-28T11:54:54;76054.00;;;20.26;38.85
46946;BME280;32679;40.810;14.498;2024-02-28T11:57:29;76086.47;;;20.54;38.83
46946;BME280;32679;40.810;14.498;2024-02-28T12:00:09;76129.94;;;20.93;37.21
46946;BME280;32679;40.810;14.498;2024-02-28T12:06:02;76045.38;;;20.17;39.58
46946;BME280;32679;40.810;14.498;2024-02-28T12:08:54;75996.88;;;19.78;39.76
46946;BME280;32679;40.810;14.498;2024-02-28T12:11:42;76039.56;;;20.14;39.60
46946;BME280;32679;40.810;14.498;2024-02-28T12:17:33;75984.28;;;19.67;40.87
46946;BME280;32679;40.810;14.498;2024-02-28T12:20:48;75928.38;;;19.20;40.16
46946;BME280;32679;40.810;14.498;2024-02-28T12:35:16;75920.97;;;19.18;40.74
46946;BME280;32679;40.810;14.498;2024-02-28T12:38:27;75960.63;;;19.45;40.32
46946;BME280;32679;40.810;14.498;2024-02-28T12:41:05;75973.44;;;19.58;38.50
46946;BME280;32679;40.810;14.498;2024-02-28T12:43:39;75994.88;;;19.74;38.43
46946;BME280;32679;40.810;14.498;2024-02-28T13:00:43;76126.97;;;20.90;36.28
46946;BME280;32679;40.810;14.498;2024-02-28T13:06:19;76117.75;;;20.80;37.03
46946;BME280;32679;40.810;14.498;2024-02-28T13:14:46;75983.84;;;19.69;39.97
46946;BME280;32679;40.810;14.498;2024-02-28T13:17:16;75939.19;;;19.29;41.44
46946;BME280;32679;40.810;14.498;2024-02-28T13:19:51;75965.41;;;19.49;41.76
46946;BME280;32679;40.810;14.498;2024-02-28T13:22:46;75905.94;;;18.98;42.69
46946;BME280;32679;40.810;14.498;2024-02-28T13:25:57;75924.97;;;19.19;43.08
46946;BME280;32679;40.810;14.498;2024-02-28T13:28:27;75933.56;;;19.22;43.12
46946;BME280;32679;40.810;14.498;2024-02-28T13:31:00;75890.31;;;18.85;43.53
46946;BME280;32679;40.810;14.498;2024-02-28T13:34:01;75879.91;;;18.81;43.24
46946;BME280;32679;40.810;14.498;2024-02-28T13:36:51;75906.94;;;18.97;43.29
46946;BME280;32679;40.810;14.498;2024-02-28T13:39:37;75942.19;;;19.31;43.40
46946;BME280;32679;40.810;14.498;2024-02-28T13:42:09;75917.53;;;19.10;43.35
46946;BME280;32679;40.810;14.498;2024-02-28T13:44:58;75941.16;;;19.33;43.46
46946;BME280;32679;40.810;14.498;2024-02-28T13:47:33;75942.59;;;19.29;42.61
46946;BME280;32679;40.810;14.498;2024-02-28T13:50:09;75936.38;;;19.29;42.43
46946;BME280;32679;40.810;14.498;2024-02-28T13:53:00;75985.47;;;19.68;41.21
46946;BME280;32679;40.810;14.498;2024-02-28T13:55:56;75943.97;;;19.33;41.96
46946;BME280;32679;40.810;14.498;2024-02-28T13:58:25;75941.59;;;19.31;41.05
46946;BME280;32679;40.810;14.498;2024-02-28T14:00:59;75933.56;;;19.22;40.67
46946;BME280;32679;40.810;14.498;2024-02-28T14:09:21;75942.59;;;19.29;42.89
46946;BME280;32679;40.810;14.498;2024-02-28T14:11:53;75927.56;;;19.17;43.38
46946;BME280;32679;40.810;14.498;2024-02-28T14:14:22;75956.41;;;19.41;43.07
46946;BME280;32679;40.810;14.498;2024-02-28T14:17:15;75949.00;;;19.32;42.65
46946;BME280;32679;40.810;14.498;2024-02-28T14:19:55;75913.34;;;19.07;43.00
46946;BME280;32679;40.810;14.498;2024-02-28T14:22:57;75966.81;;;19.52;42.77
46946;BME280;32679;40.810;14.498;2024-02-28T14:26:36;75960.41;;;19.49;42.24
46946;BME280;32679;40.810;14.498;2024-02-28T14:29:29;75975.84;;;19.60;41.32
46946;BME280;32679;40.810;14.498;2024-02-28T14:31:58;75940.56;;;19.32;41.02
46946;BME280;32679;40.810;14.498;2024-02-28T14:34:29;75968.00;;;19.53;40.95
46946;BME280;32679;40.810;14.498;2024-02-28T14:43:16;75948.59;;;19.42;41.40
46946;BME280;32679;40.810;14.498;2024-02-28T14:48:57;75925.16;;;19.15;41.90
46946;BME280;32679;40.810;14.498;2024-02-28T14:55:04;75917.53;;;19.10;41.30
46946;BME280;32679;40.810;14.498;2024-02-28T14:57:36;75869.28;;;18.67;41.32
46946;BME280;32679;40.810;14.498;2024-02-28T15:00:03;75858.28;;;18.63;41.85
46946;BME280;32679;40.810;14.498;2024-02-28T15:02:40;75859.88;;;18.62;41.42
46946;BME280;32679;40.810;14.498;2024-02-28T15:05:08;75885.13;;;18.83;41.78
46946;BME280;32679;40.810;14.498;2024-02-28T15:08:02;75854.06;;;18.59;42.03
46946;BME280;32679;40.810;14.498;2024-02-28T15:10:46;75867.69;;;18.68;42.28
46946;BME280;32679;40.810;14.498;2024-02-28T15:14:09;75893.94;;;18.88;41.88
46946;BME280;32679;40.810;14.498;2024-02-28T15:16:34;75856.88;;;18.59;42.16
46946;BME280;32679;40.810;14.498;2024-02-28T15:19:11;75872.31;;;18.70;42.17
46946;BME280;32679;40.810;14.498;2024-02-28T15:22:03;75880.91;;;18.79;42.40
46946;BME280;32679;40.810;14.498;2024-02-28T15:24:41;75841.06;;;18.43;42.46
46946;BME280;32679;40.810;14.498;2024-02-28T15:27:08;75856.88;;;18.59;42.42
46946;BME280;32679;40.810;14.498;2024-02-28T15:29:37;75862.25;;;18.64;42.74
46946;BME280;32679;40.810;14.498;2024-02-28T15:32:10;75852.06;;;18.55;42.59
46946;BME280;32679;40.810;14.498;2024-02-28T15:35:03;75831.44;;;18.35;42.73
46946;BME280;32679;40.810;14.498;2024-02-28T15:37:54;75812.44;;;18.21;42.33
46946;BME280;32679;40.810;14.498;2024-02-28T15:43:19;75805.03;;;18.13;42.80
46946;BME280;32679;40.810;14.498;2024-02-28T15:46:15;75824.66;;;18.34;43.20
46946;BME280;32679;40.810;14.498;2024-02-28T15:48:52;75825.66;;;18.32;43.13
46946;BME280;32679;40.810;14.498;2024-02-28T15:51:25;75837.25;;;18.38;43.35
46946;BME280;32679;40.810;14.498;2024-02-28T15:53:58;75787.22;;;18.00;43.18
46946;BME280;32679;40.810;14.498;2024-02-28T15:56:42;75793.22;;;18.05;43.27
46946;BME280;32679;40.810;14.498;2024-02-28T15:59:14;75816.44;;;18.22;43.37
46946;BME280;32679;40.810;14.498;2024-02-28T16:02:09;75795.63;;;18.07;43.45
46946;BME280;32679;40.810;14.498;2024-02-28T16:04:57;75829.44;;;18.31;43.52
46946;BME280;32679;40.810;14.498;2024-02-28T16:07:45;75796.22;;;18.08;43.39
46946;BME280;32679;40.810;14.498;2024-02-28T16:10:44;75772.22;;;17.87;43.73
46946;BME280;32679;40.810;14.498;2024-02-28T16:13:59;75814.44;;;18.18;43.81
46946;BME280;32679;40.810;14.498;2024-02-28T16:17:12;75776.22;;;17.88;44.19
46946;BME280;32679;40.810;14.498;2024-02-28T16:19:55;75782.81;;;17.94;44.25
46946;BME280;32679;40.810;14.498;2024-02-28T16:23:03;75790.63;;;18.00;43.98
46946;BME280;32679;40.810;14.498;2024-02-28T16:26:04;75789.03;;;18.01;44.29
46946;BME280;32679;40.810;14.498;2024-02-28T16:29:19;75792.44;;;18.02;44.64
46946;BME280;32679;40.810;14.498;2024-02-28T16:41:07;75770.41;;;17.86;45.00
46946;BME280;32679;40.810;14.498;2024-02-28T16:43:50;75755.19;;;17.70;45.46
46946;BME280;32679;40.810;14.498;2024-02-28T16:47:14;75766.81;;;17.83;45.13
46946;BME280;32679;40.810;14.498;2024-02-28T16:49:45;75743.59;;;17.58;44.20
46946;BME280;32679;40.810;14.498;2024-02-28T16:52:37;75754.81;;;17.72;44.57
46946;BME280;32679;40.810;14.498;2024-02-28T16:55:06;75747.97;;;17.64;44.98
46946;BME280;32679;40.810;14.498;2024-02-28T16:57:49;75733.19;;;17.54;45.52
46946;BME280;32679;40.810;14.498;2024-02-28T17:05:58;75701.97;;;17.27;45.79
46946;BME280;32679;40.810;14.498;2024-02-28T17:08:52;75738.78;;;17.61;45.28
46946;BME280;32679;40.810;14.498;2024-02-28T17:11:57;75747.16;;;17.61;45.37
46946;BME280;32679;40.810;14.498;2024-02-28T17:34:47;75635.97;;;16.71;55.34
46946;BME280;32679;40.810;14.498;2024-02-28T17:40:23;75608.78;;;16.46;60.56
46946;BME280;32679;40.810;14.498;2024-02-28T17:43:10;75582.00;;;16.26;60.88
46946;BME280;32679;40.810;14.498;2024-02-28T17:46:06;75557.19;;;16.02;65.12
46946;BME280;32679;40.810;14.498;2024-02-28T17:48:50;75540.03;;;15.90;67.77
46946;BME280;32679;40.810;14.498;2024-02-28T17:51:26;75522.63;;;15.75;66.48
46946;BME280;32679;40.810;14.498;2024-02-28T17:54:09;75503.44;;;15.59;64.75
46946;BME280;32679;40.810;14.498;2024-02-28T17:57:35;75558.19;;;16.01;64.79
46946;BME280;32679;40.810;14.498;2024-02-28T18:00:44;75565.97;;;16.07;63.97
46946;BME280;32679;40.810;14.498;2024-02-28T18:06:53;75502.22;;;15.58;64.54
46946;BME280;32679;40.810;14.498;2024-02-28T18:11:56;75504.00;;;15.52;64.65
46946;BME280;32679;40.810;14.498;2024-02-28T18:14:24;75441.69;;;14.99;75.90
46946;BME280;32679;40.810;14.498;2024-02-28T18:16:53;75449.09;;;15.08;80.51
46946;BME280;32679;40.810;14.498;2024-02-28T18:19:22;75438.28;;;14.99;81.39
46946;BME280;32679;40.810;14.498;2024-02-28T18:21:50;75431.31;;;14.95;80.06
46946;BME280;32679;40.810;14.498;2024-02-28T18:24:39;75398.97;;;14.67;80.26
46946;BME280;32679;40.810;14.498;2024-02-28T18:27:10;75431.69;;;14.93;81.38
46946;BME280;32679;40.810;14.498;2024-02-28T18:29:55;75411.34;;;14.76;82.97
46946;BME280;32679;40.810;14.498;2024-02-28T18:32:23;75409.75;;;14.77;84.01
46946;BME280;32679;40.810;14.498;2024-02-28T18:35:31;75393.97;;;14.61;84.66
46946;BME280;32679;40.810;14.498;2024-02-28T18:37:57;75415.31;;;14.77;85.85
46946;BME280;32679;40.810;14.498;2024-02-28T18:43:39;75376.19;;;14.48;86.28
46946;BME280;32679;40.810;14.498;2024-02-28T18:46:23;75377.16;;;14.47;88.34
46946;BME280;32679;40.810;14.498;2024-02-28T18:49:13;75333.66;;;14.12;91.55
46946;BME280;32679;40.810;14.498;2024-02-28T18:51:46;75313.69;;;13.93;93.25
46946;BME280;32679;40.810;14.498;2024-02-28T18:54:22;75315.47;;;13.94;93.60
46946;BME280;32679;40.810;14.498;2024-02-28T18:57:06;75331.47;;;14.12;94.65
46946;BME280;32679;40.810;14.498;2024-02-28T18:59:56;75274.56;;;13.57;97.22
46946;BME280;32679;40.810;14.498;2024-02-28T19:05:30;75294.53;;;13.76;99.93
46946;BME280;32679;40.810;14.498;2024-02-28T19:08:21;75261.59;;;13.48;100.00
46946;BME280;32679;40.810;14.498;2024-02-28T19:11:41;75230.47;;;13.22;100.00
46946;BME280;32679;40.810;14.498;2024-02-28T19:14:32;75284.19;;;13.72;100.00
46946;BME280;32679;40.810;14.498;2024-02-28T19:17:05;75258.00;;;13.45;100.00
46946;BME280;32679;40.810;14.498;2024-02-28T19:19:49;75243.25;;;13.35;100.00
46946;BME280;32679;40.810;14.498;2024-02-28T19:22:28;75232.28;;;13.23;100.00
46946;BME280;32679;40.810;14.498;2024-02-28T19:25:23;75237.28;;;13.30;100.00
46946;BME280;32679;40.810;14.498;2024-02-28T19:28:22;75277.94;;;13.57;100.00
46946;BME280;32679;40.810;14.498;2024-02-28T19:31:26;75258.44;;;13.50;100.00
46946;BME280;32679;40.810;14.498;2024-02-28T19:34:16;75230.84;;;13.20;100.00
46946;BME280;32679;40.810;14.498;2024-02-28T19:37:08;75251.59;;;13.35;100.00
46946;BME280;32679;40.810;14.498;2024-02-28T19:39:41;75264.00;;;13.50;100.00
46946;BME280;32679;40.810;14.498;2024-02-28T19:42:25;75270.97;;;13.54;100.00
46946;BME280;32679;40.810;14.498;2024-02-28T19:44:52;75225.66;;;13.18;100.00
46946;BME280;32679;40.810;14.498;2024-02-28T19:47:37;75250.59;;;13.36;100.00
46946;BME280;32679;40.810;14.498;2024-02-28T19:50:22;75215.88;;;13.07;100.00
46946;BME280;32679;40.810;14.498;2024-02-28T19:54:12;75230.84;;;13.20;100.00
46946;BME280;32679;40.810;14.498;2024-02-28T20:00:28;75190.97;;;12.88;100.00
46946;BME280;32679;40.810;14.498;2024-02-28T20:10:19;75186.19;;;12.84;100.00
46946;BME280;32679;40.810;14.498;2024-02-28T20:13:34;75159.84;;;12.62;100.00
46946;BME280;32679;40.810;14.498;2024-02-28T20:20:11;75115.75;;;12.19;100.00
46946;BME280;32679;40.810;14.498;2024-02-28T20:23:33;75110.44;;;12.22;100.00
46946;BME280;32679;40.810;14.498;2024-02-28T20:26:27;75129.94;;;12.36;100.00
46946;BME280;32679;40.810;14.498;2024-02-28T20:29:21;75109.59;;;12.19;100.00
46946;BME280;32679;40.810;14.498;2024-02-28T20:31:59;75094.06;;;12.05;100.00
46946;BME280;32679;40.810;14.498;2024-02-28T20:35:11;75124.41;;;12.36;100.00
46946;BME280;32679;40.810;14.498;2024-02-28T20:38:45;75144.31;;;12.48;100.00
46946;BME280;32679;40.810;14.498;2024-02-28T20:41:52;75144.66;;;12.46;100.00
46946;BME280;32679;40.810;14.498;2024-02-28T20:44:51;75181.59;;;12.82;100.00
46946;BME280;32679;40.810;14.498;2024-02-28T20:50:57;75195.75;;;12.92;100.00
46946;BME280;32679;40.810;14.498;2024-02-28T20:53:54;75170.78;;;12.66;100.00
46946;BME280;32679;40.810;14.498;2024-02-28T20:56:41;75196.94;;;12.93;100.00
46946;BME280;32679;40.810;14.498;2024-02-28T20:59:47;75187.59;;;12.88;100.00
46946;BME280;32679;40.810;14.498;2024-02-28T21:03:09;75157.47;;;12.59;100.00
46946;BME280;32679;40.810;14.498;2024-02-28T21:19:17;75097.44;;;12.06;100.00
46946;BME280;32679;40.810;14.498;2024-02-28T21:21:43;75063.94;;;11.77;100.00
46946;BME280;32679;40.810;14.498;2024-02-28T21:27:47;75095.09;;;12.11;100.00
46946;BME280;32679;40.810;14.498;2024-02-28T21:30:23;75107.00;;;12.14;100.00
46946;BME280;32679;40.810;14.498;2024-02-28T21:35:24;75116.41;;;12.27;100.00
46946;BME280;32679;40.810;14.498;2024-02-28T21:41:50;75133.16;;;12.41;100.00
46946;BME280;32679;40.810;14.498;2024-02-28T21:44:25;75113.59;;;12.20;100.00
46946;BME280;32679;40.810;14.498;2024-02-28T21:47:17;75117.41;;;12.25;100.00
46946;BME280;32679;40.810;14.498;2024-02-28T21:50:14;75127.53;;;12.34;100.00
46946;BME280;32679;40.810;14.498;2024-02-28T21:56:38;75129.94;;;12.36;100.00
46946;BME280;32679;40.810;14.498;2024-02-28T21:59:46;75139.06;;;12.39;100.00
46946;BME280;32679;40.810;14.498;2024-02-28T22:03:01;75093.09;;;12.07;100.00
46946;BME280;32679;40.810;14.498;2024-02-28T22:06:30;75137.50;;;12.40;100.00
46946;BME280;32679;40.810;14.498;2024-02-28T22:09:15;75088.09;;;12.00;100.00